Airfield :
LOGIN :

Register | Disclaimer

   EN    FR    IT 

 










Legend :    VFR   Marginal VFR   IFR   Intensive IFR   Very Intensive IFR
Visi :
Ceiling :
>= 8 km
>= 3000ft
5 to 8 km
1000 to 3000 ft
1500m to 5 km
500 to 1000 ft
800 to 1500m
200 to 500 ft
< 800m
< 200 ft
Symbols :   Thunderstorms  Fog  Heavy snow  Heavy precipitations  Wind > 20 kt
SIGMETs :     Misc.  Thunderstorms  Icing  Turbulence  Mountain Waves  Volcanic Ashes






- Airport Elevation : 935 ft


EBFS - Florennes

CURRENT METAR :
  • 291155Z VRB01KT 9999 FEW030 SCT050 12/04 Q1003 BLU BLU

EXPIRED METARs :
  • 291125Z 21004KT 9999 FEW030 BKN200 12/04 Q1002 BLU BLU
  • 291055Z 15003KT 9999 FEW030 BKN200 12/04 Q1002 BLU BLU
  • 291025Z 15003KT 9999 FEW020 BKN200 12/04 Q1002 BLU BLU
  • 291021Z VRB02KT 9999 FEW020 BKN200 12/04 Q1002 BLU BLU
  • 290955Z 18003KT 9999 FEW020 BKN200 12/05 Q1002 BLU BLU
  • 290925Z VRB02KT 9999 FEW020 BKN200 11/05 Q1002 BLU BLU

TAF AMD TAF EBFS
Valid from the 29 at 10:00 until the 29 at 19:00 UTC


290911Z 2910/2919 22005KT 9999 FEW025 SCT200
BECMG 2911/2913 28007KT
PROB30
TEMPO 2911/2919 28010KT 4000 -SHRA FEW008 SCT022TCU



MET'MAP, your aeronautical weather chart ! - Copyright ORBIFLY December 2007 - Disclaimer

ORBIFLY MET'MAP TEAM :

Programming & Development : Alexandra Zaïnal
Original concept : Baudouin d'Aumeries
Technical & hardware support : Manuel Goepfert
Assistance : Marc-Olivier Méhu




SOURCES & CREDITS :

   NOAA